<?xml version="1.0" encoding="UTF-8" standalone="no" ?>
<gpx xmlns="http://www.topografix.com/GPX/1/1" xmlns:xsi="http://www.w3.org/2001/XMLSchema-instance" xsi:schemaLocation="http://www.topografix.com/GPX/1/1 http://www.topografix.com/GPX/1/1/gpx.xsd" version="1.1" creator="VisuGPX - https://www.visugpx.com">
  <metadata>
    <name>Tour du Roc de Chère</name>
    <desc><![CDATA[Un tour aux abords du lac d\'Annecy en forêt de chênes pubescents, bouleaux, ifs etc...]]></desc>
  </metadata>
  <trk>
    <name><![CDATA[Roc de Chere deplacement]]></name>
    <trkseg>
      <trkpt lat="45.85038" lon="6.20274">
        <ele>547.127441</ele>
        <time>2011-01-15T14:28:55Z</time>
      </trkpt>
      <trkpt lat="45.85038" lon="6.20277">
        <ele>548.088867</ele>
        <time>2011-01-15T14:28:58Z</time>
      </trkpt>
      <trkpt lat="45.85041" lon="6.20284">
        <ele>547.608154</ele>
        <time>2011-01-15T14:29:04Z</time>
      </trkpt>
      <trkpt lat="45.85049" lon="6.20297">
        <ele>548.088867</ele>
        <time>2011-01-15T14:29:15Z</time>
      </trkpt>
      <trkpt lat="45.85058" lon="6.20313">
        <ele>549.050049</ele>
        <time>2011-01-15T14:29:28Z</time>
      </trkpt>
      <trkpt lat="45.85066" lon="6.20328">
        <ele>549.050049</ele>
        <time>2011-01-15T14:29:40Z</time>
      </trkpt>
      <trkpt lat="45.85073" lon="6.20348">
        <ele>549.050049</ele>
        <time>2011-01-15T14:29:54Z</time>
      </trkpt>
      <trkpt lat="45.8508" lon="6.20367">
        <ele>549.050049</ele>
        <time>2011-01-15T14:30:07Z</time>
      </trkpt>
      <trkpt lat="45.85084" lon="6.20382">
        <ele>549.050049</ele>
        <time>2011-01-15T14:30:17Z</time>
      </trkpt>
      <trkpt lat="45.85087" lon="6.20394">
        <ele>549.530762</ele>
        <time>2011-01-15T14:30:25Z</time>
      </trkpt>
      <trkpt lat="45.85081" lon="6.20405">
        <ele>550.492188</ele>
        <time>2011-01-15T14:30:36Z</time>
      </trkpt>
      <trkpt lat="45.85076" lon="6.20414">
        <ele>551.934082</ele>
        <time>2011-01-15T14:30:46Z</time>
      </trkpt>
      <trkpt lat="45.85074" lon="6.20414">
        <ele>552.414551</ele>
        <time>2011-01-15T14:30:47Z</time>
      </trkpt>
      <trkpt lat="45.85071" lon="6.20413">
        <ele>552.895264</ele>
        <time>2011-01-15T14:30:53Z</time>
      </trkpt>
      <trkpt lat="45.85067" lon="6.20406">
        <ele>554.337402</ele>
        <time>2011-01-15T14:31:01Z</time>
      </trkpt>
      <trkpt lat="45.85063" lon="6.20399">
        <ele>555.298584</ele>
        <time>2011-01-15T14:31:08Z</time>
      </trkpt>
      <trkpt lat="45.85057" lon="6.20395">
        <ele>556.26001</ele>
        <time>2011-01-15T14:31:20Z</time>
      </trkpt>
      <trkpt lat="45.85051" lon="6.20393">
        <ele>557.221436</ele>
        <time>2011-01-15T14:31:27Z</time>
      </trkpt>
      <trkpt lat="45.85036" lon="6.20394">
        <ele>558.182861</ele>
        <time>2011-01-15T14:31:37Z</time>
      </trkpt>
      <trkpt lat="45.85028" lon="6.204">
        <ele>560.105225</ele>
        <time>2011-01-15T14:31:47Z</time>
      </trkpt>
      <trkpt lat="45.85019" lon="6.20405">
        <ele>562.989258</ele>
        <time>2011-01-15T14:31:56Z</time>
      </trkpt>
      <trkpt lat="45.8501" lon="6.20406">
        <ele>564.431152</ele>
        <time>2011-01-15T14:32:05Z</time>
      </trkpt>
      <trkpt lat="45.85001" lon="6.20412">
        <ele>565.392578</ele>
        <time>2011-01-15T14:32:14Z</time>
      </trkpt>
      <trkpt lat="45.84992" lon="6.20416">
        <ele>566.35376</ele>
        <time>2011-01-15T14:32:22Z</time>
      </trkpt>
      <trkpt lat="45.8499" lon="6.20417">
        <ele>566.35376</ele>
        <time>2011-01-15T14:32:24Z</time>
      </trkpt>
      <trkpt lat="45.84983" lon="6.20423">
        <ele>568.75708</ele>
        <time>2011-01-15T14:32:33Z</time>
      </trkpt>
      <trkpt lat="45.8498" lon="6.20423">
        <ele>569.237793</ele>
        <time>2011-01-15T14:32:35Z</time>
      </trkpt>
      <trkpt lat="45.8497" lon="6.20428">
        <ele>571.640869</ele>
        <time>2011-01-15T14:32:45Z</time>
      </trkpt>
      <trkpt lat="45.84963" lon="6.20432">
        <ele>574.044434</ele>
        <time>2011-01-15T14:32:53Z</time>
      </trkpt>
      <trkpt lat="45.84958" lon="6.20438">
        <ele>574.525146</ele>
        <time>2011-01-15T14:33:01Z</time>
      </trkpt>
      <trkpt lat="45.84953" lon="6.20444">
        <ele>575.486328</ele>
        <time>2011-01-15T14:33:09Z</time>
      </trkpt>
      <trkpt lat="45.84943" lon="6.2045">
        <ele>576.447754</ele>
        <time>2011-01-15T14:33:18Z</time>
      </trkpt>
      <trkpt lat="45.84941" lon="6.20451">
        <ele>576.447754</ele>
        <time>2011-01-15T14:33:20Z</time>
      </trkpt>
      <trkpt lat="45.84934" lon="6.20457">
        <ele>576.928467</ele>
        <time>2011-01-15T14:33:27Z</time>
      </trkpt>
      <trkpt lat="45.84922" lon="6.20463">
        <ele>577.40918</ele>
        <time>2011-01-15T14:33:37Z</time>
      </trkpt>
      <trkpt lat="45.84911" lon="6.20467">
        <ele>578.370361</ele>
        <time>2011-01-15T14:33:45Z</time>
      </trkpt>
      <trkpt lat="45.84901" lon="6.20471">
        <ele>579.812256</ele>
        <time>2011-01-15T14:33:54Z</time>
      </trkpt>
      <trkpt lat="45.84892" lon="6.20474">
        <ele>582.215576</ele>
        <time>2011-01-15T14:34:02Z</time>
      </trkpt>
      <trkpt lat="45.84886" lon="6.20477">
        <ele>583.176758</ele>
        <time>2011-01-15T14:34:07Z</time>
      </trkpt>
      <trkpt lat="45.84883" lon="6.20477">
        <ele>583.657471</ele>
        <time>2011-01-15T14:34:10Z</time>
      </trkpt>
      <trkpt lat="45.84876" lon="6.20481">
        <ele>585.099609</ele>
        <time>2011-01-15T14:34:18Z</time>
      </trkpt>
      <trkpt lat="45.8487" lon="6.20486">
        <ele>587.502686</ele>
        <time>2011-01-15T14:34:27Z</time>
      </trkpt>
      <trkpt lat="45.84865" lon="6.2049">
        <ele>588.464355</ele>
        <time>2011-01-15T14:34:33Z</time>
      </trkpt>
      <trkpt lat="45.84862" lon="6.20493">
        <ele>589.425537</ele>
        <time>2011-01-15T14:34:37Z</time>
      </trkpt>
      <trkpt lat="45.84854" lon="6.20494">
        <ele>591.348145</ele>
        <time>2011-01-15T14:34:46Z</time>
      </trkpt>
      <trkpt lat="45.84846" lon="6.20494">
        <ele>594.232178</ele>
        <time>2011-01-15T14:34:55Z</time>
      </trkpt>
      <trkpt lat="45.84837" lon="6.20496">
        <ele>595.674072</ele>
        <time>2011-01-15T14:35:04Z</time>
      </trkpt>
      <trkpt lat="45.8483" lon="6.20501">
        <ele>596.154785</ele>
        <time>2011-01-15T14:35:12Z</time>
      </trkpt>
      <trkpt lat="45.84824" lon="6.20507">
        <ele>597.59668</ele>
        <time>2011-01-15T14:35:19Z</time>
      </trkpt>
      <trkpt lat="45.84818" lon="6.20508">
        <ele>598.077393</ele>
        <time>2011-01-15T14:35:24Z</time>
      </trkpt>
      <trkpt lat="45.84808" lon="6.20512">
        <ele>600.480713</ele>
        <time>2011-01-15T14:35:35Z</time>
      </trkpt>
      <trkpt lat="45.84801" lon="6.20516">
        <ele>600.961182</ele>
        <time>2011-01-15T14:35:43Z</time>
      </trkpt>
      <trkpt lat="45.84798" lon="6.20513">
        <ele>603.364502</ele>
        <time>2011-01-15T14:35:50Z</time>
      </trkpt>
      <trkpt lat="45.84796" lon="6.20499">
        <ele>604.326172</ele>
        <time>2011-01-15T14:36:00Z</time>
      </trkpt>
      <trkpt lat="45.84796" lon="6.20483">
        <ele>603.845215</ele>
        <time>2011-01-15T14:36:10Z</time>
      </trkpt>
      <trkpt lat="45.84796" lon="6.20482">
        <ele>603.845215</ele>
        <time>2011-01-15T14:36:11Z</time>
      </trkpt>
      <trkpt lat="45.84801" lon="6.2047">
        <ele>603.845215</ele>
        <time>2011-01-15T14:36:21Z</time>
      </trkpt>
      <trkpt lat="45.84805" lon="6.20456">
        <ele>603.364502</ele>
        <time>2011-01-15T14:36:30Z</time>
      </trkpt>
      <trkpt lat="45.84805" lon="6.20442">
        <ele>603.845215</ele>
        <time>2011-01-15T14:36:39Z</time>
      </trkpt>
      <trkpt lat="45.84799" lon="6.20438">
        <ele>604.806641</ele>
        <time>2011-01-15T14:36:46Z</time>
      </trkpt>
      <trkpt lat="45.84792" lon="6.20435">
        <ele>606.248535</ele>
        <time>2011-01-15T14:36:56Z</time>
      </trkpt>
      <trkpt lat="45.84789" lon="6.20431">
        <ele>605.287354</ele>
        <time>2011-01-15T14:37:01Z</time>
      </trkpt>
      <trkpt lat="45.84783" lon="6.20423">
        <ele>605.287354</ele>
        <time>2011-01-15T14:37:09Z</time>
      </trkpt>
      <trkpt lat="45.84778" lon="6.20419">
        <ele>605.287354</ele>
        <time>2011-01-15T14:37:14Z</time>
      </trkpt>
      <trkpt lat="45.84767" lon="6.20415">
        <ele>606.729248</ele>
        <time>2011-01-15T14:37:22Z</time>
      </trkpt>
      <trkpt lat="45.84758" lon="6.20411">
        <ele>608.171387</ele>
        <time>2011-01-15T14:37:29Z</time>
      </trkpt>
      <trkpt lat="45.84752" lon="6.20408">
        <ele>610.09375</ele>
        <time>2011-01-15T14:37:35Z</time>
      </trkpt>
      <trkpt lat="45.84749" lon="6.20402">
        <ele>611.535889</ele>
        <time>2011-01-15T14:37:40Z</time>
      </trkpt>
      <trkpt lat="45.84747" lon="6.20399">
        <ele>612.49707</ele>
        <time>2011-01-15T14:37:47Z</time>
      </trkpt>
      <trkpt lat="45.84734" lon="6.20399">
        <ele>613.938965</ele>
        <time>2011-01-15T14:37:57Z</time>
      </trkpt>
      <trkpt lat="45.84724" lon="6.20401">
        <ele>614.419678</ele>
        <time>2011-01-15T14:38:05Z</time>
      </trkpt>
      <trkpt lat="45.84718" lon="6.20404">
        <ele>613.938965</ele>
        <time>2011-01-15T14:38:11Z</time>
      </trkpt>
      <trkpt lat="45.84716" lon="6.20407">
        <ele>614.419678</ele>
        <time>2011-01-15T14:38:14Z</time>
      </trkpt>
      <trkpt lat="45.84712" lon="6.2041">
        <ele>614.419678</ele>
        <time>2011-01-15T14:38:18Z</time>
      </trkpt>
      <trkpt lat="45.84707" lon="6.20414">
        <ele>615.861816</ele>
        <time>2011-01-15T14:38:26Z</time>
      </trkpt>
      <trkpt lat="45.84705" lon="6.20412">
        <ele>617.303711</ele>
        <time>2011-01-15T14:38:32Z</time>
      </trkpt>
      <trkpt lat="45.84701" lon="6.20408">
        <ele>618.264893</ele>
        <time>2011-01-15T14:38:38Z</time>
      </trkpt>
      <trkpt lat="45.84696" lon="6.20402">
        <ele>619.226318</ele>
        <time>2011-01-15T14:38:45Z</time>
      </trkpt>
      <trkpt lat="45.8469" lon="6.20398">
        <ele>621.629639</ele>
        <time>2011-01-15T14:38:53Z</time>
      </trkpt>
      <trkpt lat="45.84682" lon="6.20395">
        <ele>622.591064</ele>
        <time>2011-01-15T14:39:01Z</time>
      </trkpt>
      <trkpt lat="45.84668" lon="6.2039">
        <ele>624.513672</ele>
        <time>2011-01-15T14:39:10Z</time>
      </trkpt>
      <trkpt lat="45.8466" lon="6.20382">
        <ele>623.55249</ele>
        <time>2011-01-15T14:39:19Z</time>
      </trkpt>
      <trkpt lat="45.84658" lon="6.20381">
        <ele>624.513672</ele>
        <time>2011-01-15T14:39:23Z</time>
      </trkpt>
      <trkpt lat="45.8465" lon="6.20378">
        <ele>625.474854</ele>
        <time>2011-01-15T14:39:30Z</time>
      </trkpt>
      <trkpt lat="45.84648" lon="6.20377">
        <ele>625.474854</ele>
        <time>2011-01-15T14:39:31Z</time>
      </trkpt>
      <trkpt lat="45.84638" lon="6.20378">
        <ele>626.436279</ele>
        <time>2011-01-15T14:39:39Z</time>
      </trkpt>
      <trkpt lat="45.84632" lon="6.20377">
        <ele>626.916992</ele>
        <time>2011-01-15T14:39:45Z</time>
      </trkpt>
      <trkpt lat="45.8462" lon="6.20377">
        <ele>627.878174</ele>
        <time>2011-01-15T14:39:56Z</time>
      </trkpt>
      <trkpt lat="45.84614" lon="6.20375">
        <ele>629.800781</ele>
        <time>2011-01-15T14:40:01Z</time>
      </trkpt>
      <trkpt lat="45.84604" lon="6.20378">
        <ele>631.24292</ele>
        <time>2011-01-15T14:40:10Z</time>
      </trkpt>
      <trkpt lat="45.84593" lon="6.20381">
        <ele>631.723389</ele>
        <time>2011-01-15T14:40:19Z</time>
      </trkpt>
      <trkpt lat="45.84585" lon="6.20386">
        <ele>632.684814</ele>
        <time>2011-01-15T14:40:27Z</time>
      </trkpt>
      <trkpt lat="45.84562" lon="6.20406">
        <ele>634.126709</ele>
        <time>2011-01-15T14:42:32Z</time>
      </trkpt>
      <trkpt lat="45.84553" lon="6.20409">
        <ele>635.088135</ele>
        <time>2011-01-15T14:42:40Z</time>
      </trkpt>
      <trkpt lat="45.84548" lon="6.2041">
        <ele>635.088135</ele>
        <time>2011-01-15T14:42:48Z</time>
      </trkpt>
      <trkpt lat="45.84544" lon="6.20405">
        <ele>636.530273</ele>
        <time>2011-01-15T14:42:55Z</time>
      </trkpt>
      <trkpt lat="45.84538" lon="6.20401">
        <ele>637.010742</ele>
        <time>2011-01-15T14:43:01Z</time>
      </trkpt>
      <trkpt lat="45.84528" lon="6.20395">
        <ele>638.452881</ele>
        <time>2011-01-15T14:43:08Z</time>
      </trkpt>
      <trkpt lat="45.84519" lon="6.20397">
        <ele>639.894775</ele>
        <time>2011-01-15T14:43:15Z</time>
      </trkpt>
      <trkpt lat="45.84511" lon="6.20399">
        <ele>641.817383</ele>
        <time>2011-01-15T14:43:24Z</time>
      </trkpt>
      <trkpt lat="45.84506" lon="6.20402">
        <ele>642.778809</ele>
        <time>2011-01-15T14:43:30Z</time>
      </trkpt>
      <trkpt lat="45.84494" lon="6.204">
        <ele>643.73999</ele>
        <time>2011-01-15T14:43:40Z</time>
      </trkpt>
      <trkpt lat="45.84486" lon="6.20399">
        <ele>644.701172</ele>
        <time>2011-01-15T14:43:47Z</time>
      </trkpt>
      <trkpt lat="45.84475" lon="6.204">
        <ele>647.104492</ele>
        <time>2011-01-15T14:43:57Z</time>
      </trkpt>
      <trkpt lat="45.84467" lon="6.20402">
        <ele>647.585205</ele>
        <time>2011-01-15T14:44:04Z</time>
      </trkpt>
      <trkpt lat="45.84459" lon="6.20403">
        <ele>648.065918</ele>
        <time>2011-01-15T14:44:11Z</time>
      </trkpt>
      <trkpt lat="45.84455" lon="6.20402">
        <ele>648.065918</ele>
        <time>2011-01-15T14:44:14Z</time>
      </trkpt>
      <trkpt lat="45.84446" lon="6.20399">
        <ele>648.546387</ele>
        <time>2011-01-15T14:44:22Z</time>
      </trkpt>
      <trkpt lat="45.84435" lon="6.20396">
        <ele>648.546387</ele>
        <time>2011-01-15T14:44:30Z</time>
      </trkpt>
      <trkpt lat="45.84426" lon="6.20392">
        <ele>648.065918</ele>
        <time>2011-01-15T14:44:37Z</time>
      </trkpt>
      <trkpt lat="45.84416" lon="6.20391">
        <ele>648.065918</ele>
        <time>2011-01-15T14:44:44Z</time>
      </trkpt>
      <trkpt lat="45.84407" lon="6.20393">
        <ele>648.065918</ele>
        <time>2011-01-15T14:44:53Z</time>
      </trkpt>
      <trkpt lat="45.84402" lon="6.20393">
        <ele>647.585205</ele>
        <time>2011-01-15T14:44:59Z</time>
      </trkpt>
      <trkpt lat="45.84396" lon="6.20399">
        <ele>646.624023</ele>
        <time>2011-01-15T14:45:07Z</time>
      </trkpt>
      <trkpt lat="45.84391" lon="6.20401">
        <ele>646.143311</ele>
        <time>2011-01-15T14:45:13Z</time>
      </trkpt>
      <trkpt lat="45.84388" lon="6.20402">
        <ele>647.104492</ele>
        <time>2011-01-15T14:50:02Z</time>
      </trkpt>
      <trkpt lat="45.84388" lon="6.20394">
        <ele>645.662598</ele>
        <time>2011-01-15T14:50:12Z</time>
      </trkpt>
      <trkpt lat="45.84389" lon="6.20391">
        <ele>644.701172</ele>
        <time>2011-01-15T14:50:21Z</time>
      </trkpt>
      <trkpt lat="45.84392" lon="6.20385">
        <ele>642.778809</ele>
        <time>2011-01-15T14:50:40Z</time>
      </trkpt>
      <trkpt lat="45.84394" lon="6.20378">
        <ele>640.375488</ele>
        <time>2011-01-15T14:50:50Z</time>
      </trkpt>
      <trkpt lat="45.84391" lon="6.20373">
        <ele>639.414063</ele>
        <time>2011-01-15T14:50:58Z</time>
      </trkpt>
      <trkpt lat="45.84386" lon="6.20376">
        <ele>638.452881</ele>
        <time>2011-01-15T14:51:06Z</time>
      </trkpt>
      <trkpt lat="45.8438" lon="6.20384">
        <ele>636.530273</ele>
        <time>2011-01-15T14:51:15Z</time>
      </trkpt>
      <trkpt lat="45.84379" lon="6.20386">
        <ele>635.568604</ele>
        <time>2011-01-15T14:51:17Z</time>
      </trkpt>
      <trkpt lat="45.84372" lon="6.20389">
        <ele>634.126709</ele>
        <time>2011-01-15T14:51:25Z</time>
      </trkpt>
      <trkpt lat="45.84368" lon="6.20385">
        <ele>630.281494</ele>
        <time>2011-01-15T14:51:34Z</time>
      </trkpt>
      <trkpt lat="45.84365" lon="6.2038">
        <ele>629.320068</ele>
        <time>2011-01-15T14:51:42Z</time>
      </trkpt>
      <trkpt lat="45.84365" lon="6.20377">
        <ele>629.320068</ele>
        <time>2011-01-15T14:51:52Z</time>
      </trkpt>
      <trkpt lat="45.84367" lon="6.20373">
        <ele>628.8396</ele>
        <time>2011-01-15T14:52:01Z</time>
      </trkpt>
      <trkpt lat="45.84368" lon="6.20371">
        <ele>628.358887</ele>
        <time>2011-01-15T14:52:04Z</time>
      </trkpt>
      <trkpt lat="45.84372" lon="6.20362">
        <ele>626.436279</ele>
        <time>2011-01-15T14:52:12Z</time>
      </trkpt>
      <trkpt lat="45.84372" lon="6.20356">
        <ele>624.994385</ele>
        <time>2011-01-15T14:52:18Z</time>
      </trkpt>
      <trkpt lat="45.84374" lon="6.20348">
        <ele>622.591064</ele>
        <time>2011-01-15T14:52:25Z</time>
      </trkpt>
      <trkpt lat="45.84373" lon="6.20342">
        <ele>619.707031</ele>
        <time>2011-01-15T14:52:33Z</time>
      </trkpt>
      <trkpt lat="45.84374" lon="6.20335">
        <ele>617.78418</ele>
        <time>2011-01-15T14:52:42Z</time>
      </trkpt>
      <trkpt lat="45.84371" lon="6.20327">
        <ele>615.861816</ele>
        <time>2011-01-15T14:52:48Z</time>
      </trkpt>
      <trkpt lat="45.8437" lon="6.20317">
        <ele>615.381104</ele>
        <time>2011-01-15T14:52:55Z</time>
      </trkpt>
      <trkpt lat="45.8437" lon="6.20309">
        <ele>615.381104</ele>
        <time>2011-01-15T14:53:02Z</time>
      </trkpt>
      <trkpt lat="45.84366" lon="6.20294">
        <ele>614.900391</ele>
        <time>2011-01-15T14:53:12Z</time>
      </trkpt>
      <trkpt lat="45.84361" lon="6.20284">
        <ele>614.900391</ele>
        <time>2011-01-15T14:53:20Z</time>
      </trkpt>
      <trkpt lat="45.84349" lon="6.20275">
        <ele>615.381104</ele>
        <time>2011-01-15T14:53:30Z</time>
      </trkpt>
      <trkpt lat="45.84345" lon="6.20276">
        <ele>615.381104</ele>
        <time>2011-01-15T14:53:41Z</time>
      </trkpt>
      <trkpt lat="45.84339" lon="6.20269">
        <ele>614.900391</ele>
        <time>2011-01-15T15:02:18Z</time>
      </trkpt>
      <trkpt lat="45.84338" lon="6.20273">
        <ele>615.381104</ele>
        <time>2011-01-15T15:02:24Z</time>
      </trkpt>
      <trkpt lat="45.84336" lon="6.20284">
        <ele>614.419678</ele>
        <time>2011-01-15T15:02:33Z</time>
      </trkpt>
      <trkpt lat="45.84331" lon="6.20296">
        <ele>613.458496</ele>
        <time>2011-01-15T15:02:45Z</time>
      </trkpt>
      <trkpt lat="45.84325" lon="6.203">
        <ele>612.977783</ele>
        <time>2011-01-15T15:02:54Z</time>
      </trkpt>
      <trkpt lat="45.84322" lon="6.20301">
        <ele>612.49707</ele>
        <time>2011-01-15T15:02:58Z</time>
      </trkpt>
      <trkpt lat="45.84316" lon="6.203">
        <ele>612.016602</ele>
        <time>2011-01-15T15:03:05Z</time>
      </trkpt>
      <trkpt lat="45.84308" lon="6.20298">
        <ele>611.535889</ele>
        <time>2011-01-15T15:03:13Z</time>
      </trkpt>
      <trkpt lat="45.84301" lon="6.20296">
        <ele>609.613281</ele>
        <time>2011-01-15T15:03:21Z</time>
      </trkpt>
      <trkpt lat="45.84299" lon="6.2029">
        <ele>608.171387</ele>
        <time>2011-01-15T15:03:28Z</time>
      </trkpt>
      <trkpt lat="45.84299" lon="6.20278">
        <ele>606.248535</ele>
        <time>2011-01-15T15:03:37Z</time>
      </trkpt>
      <trkpt lat="45.84298" lon="6.20276">
        <ele>605.287354</ele>
        <time>2011-01-15T15:03:40Z</time>
      </trkpt>
      <trkpt lat="45.84289" lon="6.20288">
        <ele>603.364502</ele>
        <time>2011-01-15T15:03:51Z</time>
      </trkpt>
      <trkpt lat="45.84288" lon="6.20294">
        <ele>602.403076</ele>
        <time>2011-01-15T15:03:58Z</time>
      </trkpt>
      <trkpt lat="45.84283" lon="6.20299">
        <ele>600.480713</ele>
        <time>2011-01-15T15:04:05Z</time>
      </trkpt>
      <trkpt lat="45.8428" lon="6.20298">
        <ele>599.038574</ele>
        <time>2011-01-15T15:04:11Z</time>
      </trkpt>
      <trkpt lat="45.84279" lon="6.20293">
        <ele>598.077393</ele>
        <time>2011-01-15T15:04:17Z</time>
      </trkpt>
      <trkpt lat="45.84273" lon="6.20298">
        <ele>596.154785</ele>
        <time>2011-01-15T15:04:25Z</time>
      </trkpt>
      <trkpt lat="45.84269" lon="6.20299">
        <ele>595.193359</ele>
        <time>2011-01-15T15:04:31Z</time>
      </trkpt>
      <trkpt lat="45.84267" lon="6.20296">
        <ele>592.790283</ele>
        <time>2011-01-15T15:04:37Z</time>
      </trkpt>
      <trkpt lat="45.84264" lon="6.20297">
        <ele>591.828857</ele>
        <time>2011-01-15T15:04:40Z</time>
      </trkpt>
      <trkpt lat="45.84259" lon="6.203">
        <ele>591.348145</ele>
        <time>2011-01-15T15:04:48Z</time>
      </trkpt>
      <trkpt lat="45.84257" lon="6.203">
        <ele>590.867432</ele>
        <time>2011-01-15T15:04:50Z</time>
      </trkpt>
      <trkpt lat="45.84252" lon="6.20299">
        <ele>590.386963</ele>
        <time>2011-01-15T15:04:56Z</time>
      </trkpt>
      <trkpt lat="45.84252" lon="6.20297">
        <ele>588.945068</ele>
        <time>2011-01-15T15:05:00Z</time>
      </trkpt>
      <trkpt lat="45.84255" lon="6.20293">
        <ele>586.541504</ele>
        <time>2011-01-15T15:05:07Z</time>
      </trkpt>
      <trkpt lat="45.84251" lon="6.20289">
        <ele>586.060791</ele>
        <time>2011-01-15T15:05:14Z</time>
      </trkpt>
      <trkpt lat="45.84245" lon="6.20285">
        <ele>584.138184</ele>
        <time>2011-01-15T15:05:22Z</time>
      </trkpt>
      <trkpt lat="45.84248" lon="6.20277">
        <ele>582.696289</ele>
        <time>2011-01-15T15:05:30Z</time>
      </trkpt>
      <trkpt lat="45.84248" lon="6.2027">
        <ele>580.292969</ele>
        <time>2011-01-15T15:05:37Z</time>
      </trkpt>
      <trkpt lat="45.84246" lon="6.20261">
        <ele>578.851074</ele>
        <time>2011-01-15T15:05:45Z</time>
      </trkpt>
      <trkpt lat="45.84247" lon="6.20255">
        <ele>575.967041</ele>
        <time>2011-01-15T15:05:52Z</time>
      </trkpt>
      <trkpt lat="45.84245" lon="6.20246">
        <ele>574.525146</ele>
        <time>2011-01-15T15:05:59Z</time>
      </trkpt>
      <trkpt lat="45.84241" lon="6.20236">
        <ele>572.121826</ele>
        <time>2011-01-15T15:06:08Z</time>
      </trkpt>
      <trkpt lat="45.8424" lon="6.20229">
        <ele>570.679688</ele>
        <time>2011-01-15T15:06:14Z</time>
      </trkpt>
      <trkpt lat="45.84239" lon="6.2022">
        <ele>569.718506</ele>
        <time>2011-01-15T15:06:21Z</time>
      </trkpt>
      <trkpt lat="45.84235" lon="6.20212">
        <ele>569.718506</ele>
        <time>2011-01-15T15:06:27Z</time>
      </trkpt>
      <trkpt lat="45.84234" lon="6.20206">
        <ele>568.75708</ele>
        <time>2011-01-15T15:06:31Z</time>
      </trkpt>
      <trkpt lat="45.84231" lon="6.20194">
        <ele>567.795654</ele>
        <time>2011-01-15T15:06:39Z</time>
      </trkpt>
      <trkpt lat="45.8423" lon="6.20183">
        <ele>566.834473</ele>
        <time>2011-01-15T15:06:48Z</time>
      </trkpt>
      <trkpt lat="45.84228" lon="6.20166">
        <ele>565.873291</ele>
        <time>2011-01-15T15:06:57Z</time>
      </trkpt>
      <trkpt lat="45.84225" lon="6.20157">
        <ele>564.431152</ele>
        <time>2011-01-15T15:07:04Z</time>
      </trkpt>
      <trkpt lat="45.84221" lon="6.20145">
        <ele>563.469971</ele>
        <time>2011-01-15T15:07:12Z</time>
      </trkpt>
      <trkpt lat="45.84221" lon="6.2013">
        <ele>562.028076</ele>
        <time>2011-01-15T15:07:21Z</time>
      </trkpt>
      <trkpt lat="45.8422" lon="6.20116">
        <ele>561.06665</ele>
        <time>2011-01-15T15:07:30Z</time>
      </trkpt>
      <trkpt lat="45.8422" lon="6.20104">
        <ele>560.105225</ele>
        <time>2011-01-15T15:07:38Z</time>
      </trkpt>
      <trkpt lat="45.84219" lon="6.20089">
        <ele>559.624756</ele>
        <time>2011-01-15T15:07:47Z</time>
      </trkpt>
      <trkpt lat="45.8422" lon="6.20073">
        <ele>557.702148</ele>
        <time>2011-01-15T15:07:56Z</time>
      </trkpt>
      <trkpt lat="45.84219" lon="6.20058">
        <ele>556.740723</ele>
        <time>2011-01-15T15:08:07Z</time>
      </trkpt>
      <trkpt lat="45.84218" lon="6.20047">
        <ele>556.26001</ele>
        <time>2011-01-15T15:08:14Z</time>
      </trkpt>
      <trkpt lat="45.8422" lon="6.20041">
        <ele>555.779297</ele>
        <time>2011-01-15T15:08:18Z</time>
      </trkpt>
      <trkpt lat="45.84221" lon="6.20025">
        <ele>555.298584</ele>
        <time>2011-01-15T15:08:27Z</time>
      </trkpt>
      <trkpt lat="45.84222" lon="6.20015">
        <ele>554.817871</ele>
        <time>2011-01-15T15:08:35Z</time>
      </trkpt>
      <trkpt lat="45.84224" lon="6.20005">
        <ele>554.817871</ele>
        <time>2011-01-15T15:08:42Z</time>
      </trkpt>
      <trkpt lat="45.84227" lon="6.19991">
        <ele>553.375977</ele>
        <time>2011-01-15T15:08:51Z</time>
      </trkpt>
      <trkpt lat="45.8423" lon="6.19976">
        <ele>552.895264</ele>
        <time>2011-01-15T15:09:00Z</time>
      </trkpt>
      <trkpt lat="45.84231" lon="6.19971">
        <ele>553.375977</ele>
        <time>2011-01-15T15:09:05Z</time>
      </trkpt>
      <trkpt lat="45.84235" lon="6.19954">
        <ele>553.375977</ele>
        <time>2011-01-15T15:09:14Z</time>
      </trkpt>
      <trkpt lat="45.84235" lon="6.19933">
        <ele>551.934082</ele>
        <time>2011-01-15T15:09:24Z</time>
      </trkpt>
      <trkpt lat="45.84236" lon="6.19921">
        <ele>551.453369</ele>
        <time>2011-01-15T15:09:31Z</time>
      </trkpt>
      <trkpt lat="45.84235" lon="6.19914">
        <ele>551.934082</ele>
        <time>2011-01-15T15:09:36Z</time>
      </trkpt>
      <trkpt lat="45.84239" lon="6.199">
        <ele>551.934082</ele>
        <time>2011-01-15T15:09:45Z</time>
      </trkpt>
      <trkpt lat="45.84244" lon="6.1989">
        <ele>552.414551</ele>
        <time>2011-01-15T15:09:51Z</time>
      </trkpt>
      <trkpt lat="45.84251" lon="6.19874">
        <ele>553.856689</ele>
        <time>2011-01-15T15:10:01Z</time>
      </trkpt>
      <trkpt lat="45.84256" lon="6.19864">
        <ele>555.779297</ele>
        <time>2011-01-15T15:10:09Z</time>
      </trkpt>
      <trkpt lat="45.84261" lon="6.19854">
        <ele>555.779297</ele>
        <time>2011-01-15T15:10:16Z</time>
      </trkpt>
      <trkpt lat="45.84266" lon="6.19844">
        <ele>555.779297</ele>
        <time>2011-01-15T15:10:23Z</time>
      </trkpt>
      <trkpt lat="45.84268" lon="6.19835">
        <ele>555.779297</ele>
        <time>2011-01-15T15:10:28Z</time>
      </trkpt>
      <trkpt lat="45.84273" lon="6.19826">
        <ele>555.779297</ele>
        <time>2011-01-15T15:10:34Z</time>
      </trkpt>
      <trkpt lat="45.8428" lon="6.1981">
        <ele>555.298584</ele>
        <time>2011-01-15T15:10:43Z</time>
      </trkpt>
      <trkpt lat="45.84286" lon="6.19794">
        <ele>554.337402</ele>
        <time>2011-01-15T15:10:53Z</time>
      </trkpt>
      <trkpt lat="45.84289" lon="6.19784">
        <ele>553.856689</ele>
        <time>2011-01-15T15:11:00Z</time>
      </trkpt>
      <trkpt lat="45.84291" lon="6.19777">
        <ele>553.856689</ele>
        <time>2011-01-15T15:11:08Z</time>
      </trkpt>
      <trkpt lat="45.84293" lon="6.19777">
        <ele>552.414551</ele>
        <time>2011-01-15T15:11:15Z</time>
      </trkpt>
      <trkpt lat="45.84292" lon="6.19781">
        <ele>552.414551</ele>
        <time>2011-01-15T15:11:28Z</time>
      </trkpt>
      <trkpt lat="45.84297" lon="6.19773">
        <ele>553.375977</ele>
        <time>2011-01-15T15:11:37Z</time>
      </trkpt>
      <trkpt lat="45.84301" lon="6.19764">
        <ele>553.375977</ele>
        <time>2011-01-15T15:11:46Z</time>
      </trkpt>
      <trkpt lat="45.84303" lon="6.19754">
        <ele>553.375977</ele>
        <time>2011-01-15T15:11:55Z</time>
      </trkpt>
      <trkpt lat="45.84309" lon="6.19736">
        <ele>553.856689</ele>
        <time>2011-01-15T15:12:04Z</time>
      </trkpt>
      <trkpt lat="45.84317" lon="6.19718">
        <ele>552.895264</ele>
        <time>2011-01-15T15:12:14Z</time>
      </trkpt>
      <trkpt lat="45.84322" lon="6.19711">
        <ele>552.414551</ele>
        <time>2011-01-15T15:12:22Z</time>
      </trkpt>
      <trkpt lat="45.84326" lon="6.19706">
        <ele>551.934082</ele>
        <time>2011-01-15T15:12:28Z</time>
      </trkpt>
      <trkpt lat="45.84334" lon="6.19695">
        <ele>552.895264</ele>
        <time>2011-01-15T15:12:38Z</time>
      </trkpt>
      <trkpt lat="45.84344" lon="6.19679">
        <ele>552.895264</ele>
        <time>2011-01-15T15:12:48Z</time>
      </trkpt>
      <trkpt lat="45.8435" lon="6.19667">
        <ele>552.414551</ele>
        <time>2011-01-15T15:12:58Z</time>
      </trkpt>
      <trkpt lat="45.84354" lon="6.19657">
        <ele>552.895264</ele>
        <time>2011-01-15T15:13:05Z</time>
      </trkpt>
      <trkpt lat="45.84359" lon="6.19643">
        <ele>552.895264</ele>
        <time>2011-01-15T15:13:12Z</time>
      </trkpt>
      <trkpt lat="45.84363" lon="6.19632">
        <ele>552.895264</ele>
        <time>2011-01-15T15:13:21Z</time>
      </trkpt>
      <trkpt lat="45.84366" lon="6.19621">
        <ele>552.414551</ele>
        <time>2011-01-15T15:13:27Z</time>
      </trkpt>
      <trkpt lat="45.84372" lon="6.19608">
        <ele>552.895264</ele>
        <time>2011-01-15T15:13:35Z</time>
      </trkpt>
      <trkpt lat="45.84379" lon="6.19597">
        <ele>553.375977</ele>
        <time>2011-01-15T15:13:43Z</time>
      </trkpt>
      <trkpt lat="45.84385" lon="6.19588">
        <ele>553.856689</ele>
        <time>2011-01-15T15:13:50Z</time>
      </trkpt>
      <trkpt lat="45.84388" lon="6.19582">
        <ele>553.375977</ele>
        <time>2011-01-15T15:13:55Z</time>
      </trkpt>
      <trkpt lat="45.84393" lon="6.1957">
        <ele>553.375977</ele>
        <time>2011-01-15T15:14:03Z</time>
      </trkpt>
      <trkpt lat="45.84394" lon="6.19569">
        <ele>553.375977</ele>
        <time>2011-01-15T15:14:04Z</time>
      </trkpt>
      <trkpt lat="45.84397" lon="6.19558">
        <ele>553.375977</ele>
        <time>2011-01-15T15:14:13Z</time>
      </trkpt>
      <trkpt lat="45.844" lon="6.19549">
        <ele>554.337402</ele>
        <time>2011-01-15T15:14:19Z</time>
      </trkpt>
      <trkpt lat="45.84408" lon="6.19532">
        <ele>553.856689</ele>
        <time>2011-01-15T15:14:28Z</time>
      </trkpt>
      <trkpt lat="45.8441" lon="6.19529">
        <ele>554.337402</ele>
        <time>2011-01-15T15:14:30Z</time>
      </trkpt>
      <trkpt lat="45.84416" lon="6.19517">
        <ele>555.298584</ele>
        <time>2011-01-15T15:14:38Z</time>
      </trkpt>
      <trkpt lat="45.8442" lon="6.19512">
        <ele>555.298584</ele>
        <time>2011-01-15T15:14:41Z</time>
      </trkpt>
      <trkpt lat="45.84426" lon="6.19491">
        <ele>555.779297</ele>
        <time>2011-01-15T15:14:52Z</time>
      </trkpt>
      <trkpt lat="45.84429" lon="6.19485">
        <ele>555.779297</ele>
        <time>2011-01-15T15:14:55Z</time>
      </trkpt>
      <trkpt lat="45.84433" lon="6.1947">
        <ele>556.740723</ele>
        <time>2011-01-15T15:15:04Z</time>
      </trkpt>
      <trkpt lat="45.84437" lon="6.19457">
        <ele>557.702148</ele>
        <time>2011-01-15T15:15:12Z</time>
      </trkpt>
      <trkpt lat="45.84439" lon="6.19444">
        <ele>558.182861</ele>
        <time>2011-01-15T15:15:21Z</time>
      </trkpt>
      <trkpt lat="45.84446" lon="6.19427">
        <ele>559.144043</ele>
        <time>2011-01-15T15:15:30Z</time>
      </trkpt>
      <trkpt lat="45.84449" lon="6.19417">
        <ele>559.144043</ele>
        <time>2011-01-15T15:15:36Z</time>
      </trkpt>
      <trkpt lat="45.84453" lon="6.19403">
        <ele>559.144043</ele>
        <time>2011-01-15T15:15:44Z</time>
      </trkpt>
      <trkpt lat="45.84457" lon="6.19392">
        <ele>559.624756</ele>
        <time>2011-01-15T15:15:52Z</time>
      </trkpt>
      <trkpt lat="45.8446" lon="6.19389">
        <ele>560.105225</ele>
        <time>2011-01-15T15:15:57Z</time>
      </trkpt>
      <trkpt lat="45.84468" lon="6.19375">
        <ele>561.06665</ele>
        <time>2011-01-15T15:16:05Z</time>
      </trkpt>
      <trkpt lat="45.84476" lon="6.19369">
        <ele>562.508545</ele>
        <time>2011-01-15T15:16:12Z</time>
      </trkpt>
      <trkpt lat="45.84485" lon="6.19358">
        <ele>562.989258</ele>
        <time>2011-01-15T15:16:20Z</time>
      </trkpt>
      <trkpt lat="45.84489" lon="6.19354">
        <ele>562.989258</ele>
        <time>2011-01-15T15:16:27Z</time>
      </trkpt>
      <trkpt lat="45.84495" lon="6.19347">
        <ele>562.028076</ele>
        <time>2011-01-15T15:16:34Z</time>
      </trkpt>
      <trkpt lat="45.845" lon="6.19344">
        <ele>562.028076</ele>
        <time>2011-01-15T15:16:38Z</time>
      </trkpt>
      <trkpt lat="45.84505" lon="6.19338">
        <ele>561.547363</ele>
        <time>2011-01-15T15:16:44Z</time>
      </trkpt>
      <trkpt lat="45.84507" lon="6.19332">
        <ele>561.06665</ele>
        <time>2011-01-15T15:16:49Z</time>
      </trkpt>
      <trkpt lat="45.84515" lon="6.19321">
        <ele>561.06665</ele>
        <time>2011-01-15T15:16:57Z</time>
      </trkpt>
      <trkpt lat="45.84519" lon="6.19318">
        <ele>561.06665</ele>
        <time>2011-01-15T15:17:01Z</time>
      </trkpt>
      <trkpt lat="45.84531" lon="6.19309">
        <ele>561.547363</ele>
        <time>2011-01-15T15:17:12Z</time>
      </trkpt>
      <trkpt lat="45.84541" lon="6.193">
        <ele>562.028076</ele>
        <time>2011-01-15T15:17:20Z</time>
      </trkpt>
      <trkpt lat="45.84551" lon="6.19289">
        <ele>562.508545</ele>
        <time>2011-01-15T15:17:29Z</time>
      </trkpt>
      <trkpt lat="45.84558" lon="6.19282">
        <ele>562.989258</ele>
        <time>2011-01-15T15:17:38Z</time>
      </trkpt>
      <trkpt lat="45.84566" lon="6.19272">
        <ele>563.950439</ele>
        <time>2011-01-15T15:17:46Z</time>
      </trkpt>
      <trkpt lat="45.84575" lon="6.19263">
        <ele>565.392578</ele>
        <time>2011-01-15T15:17:54Z</time>
      </trkpt>
      <trkpt lat="45.84581" lon="6.19255">
        <ele>565.873291</ele>
        <time>2011-01-15T15:18:01Z</time>
      </trkpt>
      <trkpt lat="45.84589" lon="6.19249">
        <ele>566.834473</ele>
        <time>2011-01-15T15:18:09Z</time>
      </trkpt>
      <trkpt lat="45.84596" lon="6.19245">
        <ele>566.834473</ele>
        <time>2011-01-15T15:18:14Z</time>
      </trkpt>
      <trkpt lat="45.846" lon="6.19241">
        <ele>567.315186</ele>
        <time>2011-01-15T15:18:19Z</time>
      </trkpt>
      <trkpt lat="45.84604" lon="6.19235">
        <ele>567.315186</ele>
        <time>2011-01-15T15:18:24Z</time>
      </trkpt>
      <trkpt lat="45.84613" lon="6.19229">
        <ele>567.795654</ele>
        <time>2011-01-15T15:18:32Z</time>
      </trkpt>
      <trkpt lat="45.8462" lon="6.19221">
        <ele>567.795654</ele>
        <time>2011-01-15T15:18:39Z</time>
      </trkpt>
      <trkpt lat="45.84627" lon="6.19216">
        <ele>567.315186</ele>
        <time>2011-01-15T15:18:45Z</time>
      </trkpt>
      <trkpt lat="45.84636" lon="6.19213">
        <ele>567.795654</ele>
        <time>2011-01-15T15:18:53Z</time>
      </trkpt>
      <trkpt lat="45.84645" lon="6.19209">
        <ele>568.276367</ele>
        <time>2011-01-15T15:19:01Z</time>
      </trkpt>
      <trkpt lat="45.84657" lon="6.19204">
        <ele>571.1604</ele>
        <time>2011-01-15T15:19:10Z</time>
      </trkpt>
      <trkpt lat="45.84665" lon="6.19203">
        <ele>572.121826</ele>
        <time>2011-01-15T15:19:17Z</time>
      </trkpt>
      <trkpt lat="45.84678" lon="6.19198">
        <ele>573.563965</ele>
        <time>2011-01-15T15:19:26Z</time>
      </trkpt>
      <trkpt lat="45.84686" lon="6.19196">
        <ele>575.967041</ele>
        <time>2011-01-15T15:19:34Z</time>
      </trkpt>
      <trkpt lat="45.84697" lon="6.19196">
        <ele>577.889648</ele>
        <time>2011-01-15T15:19:44Z</time>
      </trkpt>
      <trkpt lat="45.84703" lon="6.19194">
        <ele>577.40918</ele>
        <time>2011-01-15T15:19:49Z</time>
      </trkpt>
      <trkpt lat="45.84705" lon="6.19192">
        <ele>577.40918</ele>
        <time>2011-01-15T15:19:51Z</time>
      </trkpt>
      <trkpt lat="45.84716" lon="6.19181">
        <ele>578.851074</ele>
        <time>2011-01-15T15:20:03Z</time>
      </trkpt>
      <trkpt lat="45.84721" lon="6.19175">
        <ele>580.773682</ele>
        <time>2011-01-15T15:20:12Z</time>
      </trkpt>
      <trkpt lat="45.84727" lon="6.19162">
        <ele>580.292969</ele>
        <time>2011-01-15T15:20:21Z</time>
      </trkpt>
      <trkpt lat="45.8473" lon="6.19159">
        <ele>580.292969</ele>
        <time>2011-01-15T15:20:28Z</time>
      </trkpt>
      <trkpt lat="45.84737" lon="6.1915">
        <ele>580.292969</ele>
        <time>2011-01-15T15:20:36Z</time>
      </trkpt>
      <trkpt lat="45.84743" lon="6.19145">
        <ele>581.254395</ele>
        <time>2011-01-15T15:20:43Z</time>
      </trkpt>
      <trkpt lat="45.84754" lon="6.19138">
        <ele>581.734863</ele>
        <time>2011-01-15T15:20:52Z</time>
      </trkpt>
      <trkpt lat="45.84765" lon="6.19126">
        <ele>580.773682</ele>
        <time>2011-01-15T15:21:03Z</time>
      </trkpt>
      <trkpt lat="45.8477" lon="6.19125">
        <ele>580.773682</ele>
        <time>2011-01-15T15:21:07Z</time>
      </trkpt>
      <trkpt lat="45.8478" lon="6.19126">
        <ele>581.254395</ele>
        <time>2011-01-15T15:21:18Z</time>
      </trkpt>
      <trkpt lat="45.84788" lon="6.19127">
        <ele>582.215576</ele>
        <time>2011-01-15T15:21:25Z</time>
      </trkpt>
      <trkpt lat="45.84796" lon="6.19125">
        <ele>581.254395</ele>
        <time>2011-01-15T15:21:33Z</time>
      </trkpt>
      <trkpt lat="45.84804" lon="6.19122">
        <ele>579.812256</ele>
        <time>2011-01-15T15:21:41Z</time>
      </trkpt>
      <trkpt lat="45.84807" lon="6.19123">
        <ele>578.851074</ele>
        <time>2011-01-15T15:21:44Z</time>
      </trkpt>
      <trkpt lat="45.84816" lon="6.19126">
        <ele>577.889648</ele>
        <time>2011-01-15T15:21:52Z</time>
      </trkpt>
      <trkpt lat="45.84826" lon="6.19132">
        <ele>578.370361</ele>
        <time>2011-01-15T15:22:01Z</time>
      </trkpt>
      <trkpt lat="45.84835" lon="6.19132">
        <ele>579.331543</ele>
        <time>2011-01-15T15:22:10Z</time>
      </trkpt>
      <trkpt lat="45.84843" lon="6.19135">
        <ele>580.773682</ele>
        <time>2011-01-15T15:22:19Z</time>
      </trkpt>
      <trkpt lat="45.84847" lon="6.19126">
        <ele>581.734863</ele>
        <time>2011-01-15T15:22:27Z</time>
      </trkpt>
      <trkpt lat="45.84856" lon="6.19115">
        <ele>580.292969</ele>
        <time>2011-01-15T15:22:37Z</time>
      </trkpt>
      <trkpt lat="45.84861" lon="6.19103">
        <ele>579.812256</ele>
        <time>2011-01-15T15:22:44Z</time>
      </trkpt>
      <trkpt lat="45.84869" lon="6.19085">
        <ele>579.812256</ele>
        <time>2011-01-15T15:22:56Z</time>
      </trkpt>
      <trkpt lat="45.84881" lon="6.19074">
        <ele>578.370361</ele>
        <time>2011-01-15T15:23:08Z</time>
      </trkpt>
      <trkpt lat="45.8489" lon="6.19068">
        <ele>576.447754</ele>
        <time>2011-01-15T15:23:17Z</time>
      </trkpt>
      <trkpt lat="45.84898" lon="6.19058">
        <ele>575.005859</ele>
        <time>2011-01-15T15:23:26Z</time>
      </trkpt>
      <trkpt lat="45.84907" lon="6.19047">
        <ele>573.083252</ele>
        <time>2011-01-15T15:23:36Z</time>
      </trkpt>
      <trkpt lat="45.84914" lon="6.19039">
        <ele>571.640869</ele>
        <time>2011-01-15T15:23:44Z</time>
      </trkpt>
      <trkpt lat="45.84919" lon="6.19038">
        <ele>571.1604</ele>
        <time>2011-01-15T15:23:51Z</time>
      </trkpt>
      <trkpt lat="45.84923" lon="6.19039">
        <ele>570.198975</ele>
        <time>2011-01-15T15:23:55Z</time>
      </trkpt>
      <trkpt lat="45.84934" lon="6.1905">
        <ele>569.718506</ele>
        <time>2011-01-15T15:24:06Z</time>
      </trkpt>
      <trkpt lat="45.84934" lon="6.1906">
        <ele>570.198975</ele>
        <time>2011-01-15T15:24:16Z</time>
      </trkpt>
      <trkpt lat="45.84936" lon="6.19069">
        <ele>569.237793</ele>
        <time>2011-01-15T15:24:24Z</time>
      </trkpt>
      <trkpt lat="45.84939" lon="6.19072">
        <ele>568.75708</ele>
        <time>2011-01-15T15:24:26Z</time>
      </trkpt>
      <trkpt lat="45.8494" lon="6.19077">
        <ele>567.795654</ele>
        <time>2011-01-15T15:24:29Z</time>
      </trkpt>
      <trkpt lat="45.8494" lon="6.19087">
        <ele>566.834473</ele>
        <time>2011-01-15T15:24:36Z</time>
      </trkpt>
      <trkpt lat="45.84942" lon="6.19101">
        <ele>566.834473</ele>
        <time>2011-01-15T15:24:45Z</time>
      </trkpt>
      <trkpt lat="45.84949" lon="6.19106">
        <ele>567.315186</ele>
        <time>2011-01-15T15:25:01Z</time>
      </trkpt>
      <trkpt lat="45.84948" lon="6.19112">
        <ele>567.315186</ele>
        <time>2011-01-15T15:25:09Z</time>
      </trkpt>
      <trkpt lat="45.84945" lon="6.19118">
        <ele>567.315186</ele>
        <time>2011-01-15T15:25:15Z</time>
      </trkpt>
      <trkpt lat="45.84942" lon="6.19128">
        <ele>567.795654</ele>
        <time>2011-01-15T15:25:22Z</time>
      </trkpt>
      <trkpt lat="45.84938" lon="6.19138">
        <ele>568.276367</ele>
        <time>2011-01-15T15:25:29Z</time>
      </trkpt>
      <trkpt lat="45.84932" lon="6.19144">
        <ele>567.795654</ele>
        <time>2011-01-15T15:25:36Z</time>
      </trkpt>
      <trkpt lat="45.84924" lon="6.19153">
        <ele>567.795654</ele>
        <time>2011-01-15T15:25:44Z</time>
      </trkpt>
      <trkpt lat="45.84919" lon="6.19161">
        <ele>568.276367</ele>
        <time>2011-01-15T15:25:51Z</time>
      </trkpt>
      <trkpt lat="45.84918" lon="6.19162">
        <ele>567.795654</ele>
        <time>2011-01-15T15:25:52Z</time>
      </trkpt>
      <trkpt lat="45.84911" lon="6.1917">
        <ele>568.75708</ele>
        <time>2011-01-15T15:26:01Z</time>
      </trkpt>
      <trkpt lat="45.84905" lon="6.19179">
        <ele>568.75708</ele>
        <time>2011-01-15T15:26:08Z</time>
      </trkpt>
      <trkpt lat="45.84899" lon="6.19189">
        <ele>569.718506</ele>
        <time>2011-01-15T15:26:15Z</time>
      </trkpt>
      <trkpt lat="45.84894" lon="6.19204">
        <ele>571.640869</ele>
        <time>2011-01-15T15:26:25Z</time>
      </trkpt>
      <trkpt lat="45.84893" lon="6.19211">
        <ele>571.640869</ele>
        <time>2011-01-15T15:26:32Z</time>
      </trkpt>
      <trkpt lat="45.84893" lon="6.19214">
        <ele>572.121826</ele>
        <time>2011-01-15T15:26:43Z</time>
      </trkpt>
      <trkpt lat="45.84893" lon="6.19222">
        <ele>572.602539</ele>
        <time>2011-01-15T15:26:52Z</time>
      </trkpt>
      <trkpt lat="45.84888" lon="6.19235">
        <ele>574.044434</ele>
        <time>2011-01-15T15:27:01Z</time>
      </trkpt>
      <trkpt lat="45.84885" lon="6.19245">
        <ele>574.044434</ele>
        <time>2011-01-15T15:27:11Z</time>
      </trkpt>
      <trkpt lat="45.84884" lon="6.19249">
        <ele>574.044434</ele>
        <time>2011-01-15T15:27:14Z</time>
      </trkpt>
      <trkpt lat="45.84882" lon="6.19259">
        <ele>574.044434</ele>
        <time>2011-01-15T15:27:21Z</time>
      </trkpt>
      <trkpt lat="45.84888" lon="6.1927">
        <ele>574.044434</ele>
        <time>2011-01-15T15:27:31Z</time>
      </trkpt>
      <trkpt lat="45.84891" lon="6.19281">
        <ele>574.044434</ele>
        <time>2011-01-15T15:27:38Z</time>
      </trkpt>
      <trkpt lat="45.84892" lon="6.19298">
        <ele>574.044434</ele>
        <time>2011-01-15T15:27:49Z</time>
      </trkpt>
      <trkpt lat="45.84892" lon="6.1931">
        <ele>574.044434</ele>
        <time>2011-01-15T15:27:59Z</time>
      </trkpt>
      <trkpt lat="45.84892" lon="6.19317">
        <ele>574.044434</ele>
        <time>2011-01-15T15:28:07Z</time>
      </trkpt>
      <trkpt lat="45.84893" lon="6.19323">
        <ele>574.044434</ele>
        <time>2011-01-15T15:28:12Z</time>
      </trkpt>
      <trkpt lat="45.84892" lon="6.19337">
        <ele>573.563965</ele>
        <time>2011-01-15T15:28:22Z</time>
      </trkpt>
      <trkpt lat="45.84895" lon="6.19349">
        <ele>573.563965</ele>
        <time>2011-01-15T15:28:30Z</time>
      </trkpt>
      <trkpt lat="45.84899" lon="6.19361">
        <ele>572.121826</ele>
        <time>2011-01-15T15:28:38Z</time>
      </trkpt>
      <trkpt lat="45.84901" lon="6.19372">
        <ele>570.679688</ele>
        <time>2011-01-15T15:28:45Z</time>
      </trkpt>
      <trkpt lat="45.84911" lon="6.19383">
        <ele>571.1604</ele>
        <time>2011-01-15T15:28:52Z</time>
      </trkpt>
      <trkpt lat="45.84921" lon="6.19392">
        <ele>571.640869</ele>
        <time>2011-01-15T15:29:01Z</time>
      </trkpt>
      <trkpt lat="45.84926" lon="6.1939">
        <ele>573.083252</ele>
        <time>2011-01-15T15:29:06Z</time>
      </trkpt>
      <trkpt lat="45.84934" lon="6.19385">
        <ele>573.563965</ele>
        <time>2011-01-15T15:29:16Z</time>
      </trkpt>
      <trkpt lat="45.84941" lon="6.19376">
        <ele>571.640869</ele>
        <time>2011-01-15T15:29:25Z</time>
      </trkpt>
      <trkpt lat="45.84952" lon="6.19365">
        <ele>570.679688</ele>
        <time>2011-01-15T15:29:35Z</time>
      </trkpt>
      <trkpt lat="45.84961" lon="6.19357">
        <ele>570.679688</ele>
        <time>2011-01-15T15:29:44Z</time>
      </trkpt>
      <trkpt lat="45.84964" lon="6.19354">
        <ele>571.1604</ele>
        <time>2011-01-15T15:29:48Z</time>
      </trkpt>
      <trkpt lat="45.8497" lon="6.19346">
        <ele>571.1604</ele>
        <time>2011-01-15T15:29:57Z</time>
      </trkpt>
      <trkpt lat="45.84975" lon="6.19339">
        <ele>570.679688</ele>
        <time>2011-01-15T15:30:05Z</time>
      </trkpt>
      <trkpt lat="45.84983" lon="6.19324">
        <ele>567.795654</ele>
        <time>2011-01-15T15:30:15Z</time>
      </trkpt>
      <trkpt lat="45.84992" lon="6.19312">
        <ele>565.873291</ele>
        <time>2011-01-15T15:30:24Z</time>
      </trkpt>
      <trkpt lat="45.84995" lon="6.19308">
        <ele>565.392578</ele>
        <time>2011-01-15T15:30:28Z</time>
      </trkpt>
      <trkpt lat="45.85007" lon="6.19299">
        <ele>564.431152</ele>
        <time>2011-01-15T15:30:40Z</time>
      </trkpt>
      <trkpt lat="45.85015" lon="6.19294">
        <ele>564.431152</ele>
        <time>2011-01-15T15:30:48Z</time>
      </trkpt>
      <trkpt lat="45.85029" lon="6.19287">
        <ele>564.431152</ele>
        <time>2011-01-15T15:30:59Z</time>
      </trkpt>
      <trkpt lat="45.85042" lon="6.19279">
        <ele>564.911865</ele>
        <time>2011-01-15T15:31:09Z</time>
      </trkpt>
      <trkpt lat="45.85049" lon="6.19282">
        <ele>565.392578</ele>
        <time>2011-01-15T15:31:16Z</time>
      </trkpt>
      <trkpt lat="45.85058" lon="6.19284">
        <ele>566.834473</ele>
        <time>2011-01-15T15:31:24Z</time>
      </trkpt>
      <trkpt lat="45.85062" lon="6.19291">
        <ele>568.276367</ele>
        <time>2011-01-15T15:31:34Z</time>
      </trkpt>
      <trkpt lat="45.85061" lon="6.19297">
        <ele>568.276367</ele>
        <time>2011-01-15T15:31:44Z</time>
      </trkpt>
      <trkpt lat="45.8506" lon="6.19311">
        <ele>567.315186</ele>
        <time>2011-01-15T15:32:05Z</time>
      </trkpt>
      <trkpt lat="45.85056" lon="6.19327">
        <ele>567.315186</ele>
        <time>2011-01-15T15:32:18Z</time>
      </trkpt>
      <trkpt lat="45.85049" lon="6.19335">
        <ele>567.795654</ele>
        <time>2011-01-15T15:32:29Z</time>
      </trkpt>
      <trkpt lat="45.85048" lon="6.19336">
        <ele>567.795654</ele>
        <time>2011-01-15T15:32:30Z</time>
      </trkpt>
      <trkpt lat="45.85046" lon="6.19353">
        <ele>567.795654</ele>
        <time>2011-01-15T15:32:43Z</time>
      </trkpt>
      <trkpt lat="45.85047" lon="6.19355">
        <ele>568.276367</ele>
        <time>2011-01-15T15:32:49Z</time>
      </trkpt>
      <trkpt lat="45.85048" lon="6.19377">
        <ele>566.35376</ele>
        <time>2011-01-15T15:33:04Z</time>
      </trkpt>
      <trkpt lat="45.8504" lon="6.19392">
        <ele>565.392578</ele>
        <time>2011-01-15T15:33:15Z</time>
      </trkpt>
      <trkpt lat="45.85032" lon="6.19413">
        <ele>565.873291</ele>
        <time>2011-01-15T15:33:29Z</time>
      </trkpt>
      <trkpt lat="45.85026" lon="6.19435">
        <ele>566.35376</ele>
        <time>2011-01-15T15:33:43Z</time>
      </trkpt>
      <trkpt lat="45.85025" lon="6.19456">
        <ele>567.315186</ele>
        <time>2011-01-15T15:33:55Z</time>
      </trkpt>
      <trkpt lat="45.85025" lon="6.1948">
        <ele>568.75708</ele>
        <time>2011-01-15T15:34:09Z</time>
      </trkpt>
      <trkpt lat="45.85024" lon="6.19503">
        <ele>568.75708</ele>
        <time>2011-01-15T15:34:22Z</time>
      </trkpt>
      <trkpt lat="45.85019" lon="6.19525">
        <ele>569.237793</ele>
        <time>2011-01-15T15:34:35Z</time>
      </trkpt>
      <trkpt lat="45.85013" lon="6.19554">
        <ele>570.198975</ele>
        <time>2011-01-15T15:34:51Z</time>
      </trkpt>
      <trkpt lat="45.85012" lon="6.19581">
        <ele>569.718506</ele>
        <time>2011-01-15T15:35:06Z</time>
      </trkpt>
      <trkpt lat="45.85012" lon="6.19603">
        <ele>570.198975</ele>
        <time>2011-01-15T15:35:18Z</time>
      </trkpt>
      <trkpt lat="45.85009" lon="6.19615">
        <ele>569.718506</ele>
        <time>2011-01-15T15:35:25Z</time>
      </trkpt>
      <trkpt lat="45.85009" lon="6.1962">
        <ele>570.198975</ele>
        <time>2011-01-15T15:35:28Z</time>
      </trkpt>
      <trkpt lat="45.85009" lon="6.19627">
        <ele>570.198975</ele>
        <time>2011-01-15T15:35:32Z</time>
      </trkpt>
      <trkpt lat="45.85013" lon="6.19646">
        <ele>569.237793</ele>
        <time>2011-01-15T15:35:43Z</time>
      </trkpt>
      <trkpt lat="45.85017" lon="6.19653">
        <ele>568.75708</ele>
        <time>2011-01-15T15:35:49Z</time>
      </trkpt>
      <trkpt lat="45.85023" lon="6.19656">
        <ele>567.315186</ele>
        <time>2011-01-15T15:35:54Z</time>
      </trkpt>
      <trkpt lat="45.85038" lon="6.19673">
        <ele>563.950439</ele>
        <time>2011-01-15T15:36:07Z</time>
      </trkpt>
      <trkpt lat="45.85047" lon="6.19688">
        <ele>562.028076</ele>
        <time>2011-01-15T15:36:18Z</time>
      </trkpt>
      <trkpt lat="45.85047" lon="6.1969">
        <ele>562.508545</ele>
        <time>2011-01-15T15:36:21Z</time>
      </trkpt>
      <trkpt lat="45.85042" lon="6.197">
        <ele>562.508545</ele>
        <time>2011-01-15T15:36:28Z</time>
      </trkpt>
      <trkpt lat="45.85031" lon="6.19716">
        <ele>562.508545</ele>
        <time>2011-01-15T15:36:40Z</time>
      </trkpt>
      <trkpt lat="45.85022" lon="6.19733">
        <ele>562.989258</ele>
        <time>2011-01-15T15:36:52Z</time>
      </trkpt>
      <trkpt lat="45.85017" lon="6.19742">
        <ele>562.989258</ele>
        <time>2011-01-15T15:37:00Z</time>
      </trkpt>
      <trkpt lat="45.85009" lon="6.19752">
        <ele>561.06665</ele>
        <time>2011-01-15T15:37:11Z</time>
      </trkpt>
      <trkpt lat="45.85004" lon="6.19761">
        <ele>560.585938</ele>
        <time>2011-01-15T15:37:18Z</time>
      </trkpt>
      <trkpt lat="45.84999" lon="6.19771">
        <ele>560.105225</ele>
        <time>2011-01-15T15:37:27Z</time>
      </trkpt>
      <trkpt lat="45.84994" lon="6.19778">
        <ele>560.105225</ele>
        <time>2011-01-15T15:37:34Z</time>
      </trkpt>
      <trkpt lat="45.84993" lon="6.19784">
        <ele>560.585938</ele>
        <time>2011-01-15T15:37:38Z</time>
      </trkpt>
      <trkpt lat="45.84983" lon="6.198">
        <ele>559.624756</ele>
        <time>2011-01-15T15:37:48Z</time>
      </trkpt>
      <trkpt lat="45.84976" lon="6.19812">
        <ele>558.66333</ele>
        <time>2011-01-15T15:37:55Z</time>
      </trkpt>
      <trkpt lat="45.84969" lon="6.19831">
        <ele>558.66333</ele>
        <time>2011-01-15T15:38:05Z</time>
      </trkpt>
      <trkpt lat="45.84959" lon="6.19851">
        <ele>558.66333</ele>
        <time>2011-01-15T15:38:17Z</time>
      </trkpt>
      <trkpt lat="45.84959" lon="6.19867">
        <ele>557.221436</ele>
        <time>2011-01-15T15:38:26Z</time>
      </trkpt>
      <trkpt lat="45.84971" lon="6.19875">
        <ele>553.856689</ele>
        <time>2011-01-15T15:38:36Z</time>
      </trkpt>
      <trkpt lat="45.84978" lon="6.1989">
        <ele>553.375977</ele>
        <time>2011-01-15T15:38:46Z</time>
      </trkpt>
      <trkpt lat="45.84982" lon="6.19908">
        <ele>552.414551</ele>
        <time>2011-01-15T15:38:55Z</time>
      </trkpt>
      <trkpt lat="45.84986" lon="6.19928">
        <ele>551.453369</ele>
        <time>2011-01-15T15:39:08Z</time>
      </trkpt>
      <trkpt lat="45.84988" lon="6.19935">
        <ele>551.453369</ele>
        <time>2011-01-15T15:39:16Z</time>
      </trkpt>
      <trkpt lat="45.8499" lon="6.19948">
        <ele>551.453369</ele>
        <time>2011-01-15T15:39:25Z</time>
      </trkpt>
      <trkpt lat="45.84994" lon="6.19975">
        <ele>551.934082</ele>
        <time>2011-01-15T15:39:40Z</time>
      </trkpt>
      <trkpt lat="45.84996" lon="6.19995">
        <ele>552.414551</ele>
        <time>2011-01-15T15:39:53Z</time>
      </trkpt>
      <trkpt lat="45.84995" lon="6.20012">
        <ele>553.375977</ele>
        <time>2011-01-15T15:40:03Z</time>
      </trkpt>
      <trkpt lat="45.84997" lon="6.20036">
        <ele>552.414551</ele>
        <time>2011-01-15T15:40:16Z</time>
      </trkpt>
      <trkpt lat="45.85" lon="6.20057">
        <ele>552.414551</ele>
        <time>2011-01-15T15:40:28Z</time>
      </trkpt>
      <trkpt lat="45.85005" lon="6.20087">
        <ele>552.895264</ele>
        <time>2011-01-15T15:40:44Z</time>
      </trkpt>
      <trkpt lat="45.85007" lon="6.20097">
        <ele>552.895264</ele>
        <time>2011-01-15T15:40:54Z</time>
      </trkpt>
      <trkpt lat="45.85011" lon="6.2011">
        <ele>553.375977</ele>
        <time>2011-01-15T15:41:02Z</time>
      </trkpt>
      <trkpt lat="45.85015" lon="6.20129">
        <ele>553.375977</ele>
        <time>2011-01-15T15:41:13Z</time>
      </trkpt>
      <trkpt lat="45.85018" lon="6.20152">
        <ele>553.856689</ele>
        <time>2011-01-15T15:41:26Z</time>
      </trkpt>
      <trkpt lat="45.8502" lon="6.20168">
        <ele>553.856689</ele>
        <time>2011-01-15T15:41:37Z</time>
      </trkpt>
      <trkpt lat="45.85021" lon="6.20175">
        <ele>554.337402</ele>
        <time>2011-01-15T15:41:41Z</time>
      </trkpt>
      <trkpt lat="45.85026" lon="6.20182">
        <ele>554.337402</ele>
        <time>2011-01-15T15:41:47Z</time>
      </trkpt>
      <trkpt lat="45.8503" lon="6.20196">
        <ele>553.856689</ele>
        <time>2011-01-15T15:41:56Z</time>
      </trkpt>
      <trkpt lat="45.85028" lon="6.20215">
        <ele>553.856689</ele>
        <time>2011-01-15T15:42:05Z</time>
      </trkpt>
      <trkpt lat="45.8503" lon="6.20238">
        <ele>553.856689</ele>
        <time>2011-01-15T15:42:18Z</time>
      </trkpt>
      <trkpt lat="45.85034" lon="6.20255">
        <ele>553.856689</ele>
        <time>2011-01-15T15:42:30Z</time>
      </trkpt>
      <trkpt lat="45.85035" lon="6.20263">
        <ele>553.856689</ele>
        <time>2011-01-15T15:42:40Z</time>
      </trkpt>
    </trkseg>
  </trk>
</gpx>